Time;durP1;ratioP1;P1;durP2;ratioP2;P2;SDS_P1;SDS_P2;PMS_P1;PMS_P2;Temp;Humidity;BMP_temperature;BMP_pressure;BME280_temperature;BME280_humidity;BME280_pressure;Samples;Min_cycle;Max_cycle;Signal;HPM_P1;HPM_P2
2021/11/02 00:01:41;;;;;;;63.73;45.15;;;;;;;8.46;66.77;99214.98;1757164;81;21024;-41
2021/11/02 00:04:08;;;;;;;63.00;45.63;;;;;;;8.48;66.72;99210.56;1757516;81;21460;-42
2021/11/02 00:06:35;;;;;;;68.37;47.10;;;;;;;8.48;66.66;99206.52;1757583;81;20997;-42
2021/11/02 00:09:05;;;;;;;64.03;46.83;;;;;;;8.49;66.55;99210.79;1757316;81;21080;-41
2021/11/02 00:11:34;;;;;;;65.05;48.30;;;;;;;8.45;66.49;99205.30;1757229;81;21507;-41
2021/11/02 00:14:08;;;;;;;66.40;45.20;;;;;;;8.40;66.55;99207.48;1756472;81;21405;-41
2021/11/02 00:16:36;;;;;;;58.38;44.23;;;;;;;8.39;66.59;99209.39;1757022;81;21001;-42
2021/11/02 00:19:05;;;;;;;64.10;44.53;;;;;;;8.42;66.56;99204.66;1756538;81;20976;-41
2021/11/02 00:21:37;;;;;;;67.67;47.05;;;;;;;8.45;66.53;99195.06;1756708;81;21004;-40
2021/11/02 00:26:48;;;;;;;67.65;48.33;;;;;;;8.43;66.63;99195.41;1756799;81;21534;-41
2021/11/02 00:29:15;;;;;;;68.15;47.58;;;;;;;8.40;66.66;99189.92;1756679;81;20961;-40
2021/11/02 00:31:42;;;;;;;74.30;50.90;;;;;;;8.39;66.70;99176.98;1756661;81;20974;-41
2021/11/02 00:34:08;;;;;;;66.40;47.50;;;;;;;8.39;66.73;99182.38;1756764;81;21543;-40
2021/11/02 00:36:36;;;;;;;61.45;45.43;;;;;;;8.40;66.69;99179.12;1756609;81;21121;-41
2021/11/02 00:39:05;;;;;;;62.75;47.03;;;;;;;8.42;66.72;99178.21;1756676;81;21000;-40
2021/11/02 00:41:31;;;;;;;67.50;49.48;;;;;;;8.43;66.78;99174.36;1756739;81;21005;-42
2021/11/02 00:43:58;;;;;;;70.87;48.90;;;;;;;8.44;66.81;99173.23;1756614;81;21259;-41
2021/11/02 00:46:34;;;;;;;69.05;48.87;;;;;;;8.43;66.80;99171.09;1751196;81;21041;-42
2021/11/02 00:49:03;;;;;;;71.33;50.90;;;;;;;8.43;66.80;99175.14;1756895;81;21135;-40
2021/11/02 00:51:31;;;;;;;72.15;49.73;;;;;;;8.41;66.93;99177.99;1757072;81;21290;-41
2021/11/02 00:53:58;;;;;;;67.03;47.33;;;;;;;8.39;66.88;99178.33;1756596;81;20933;-42
2021/11/02 00:56:25;;;;;;;62.85;45.30;;;;;;;8.41;66.86;99184.18;1756873;81;20961;-41
2021/11/02 00:58:51;;;;;;;63.70;45.58;;;;;;;8.48;66.75;99191.66;1756723;81;21100;-41
2021/11/02 01:01:18;;;;;;;63.73;47.13;;;;;;;8.51;66.75;99195.03;1756640;81;21952;-41
2021/11/02 01:03:45;;;;;;;68.55;48.75;;;;;;;8.51;66.71;99181.52;1756663;81;21041;-40
2021/11/02 01:06:12;;;;;;;70.95;49.00;;;;;;;8.51;66.67;99178.81;1750848;81;20934;-41
2021/11/02 01:08:39;;;;;;;73.22;49.85;;;;;;;8.48;66.59;99182.20;1756545;81;21641;-40
2021/11/02 01:11:06;;;;;;;72.72;50.75;;;;;;;8.44;66.65;99186.73;1756501;81;20937;-40
2021/11/02 01:13:33;;;;;;;68.22;45.40;;;;;;;8.41;66.69;99176.64;1756734;81;21079;-41
2021/11/02 01:16:01;;;;;;;64.87;47.78;;;;;;;8.39;66.69;99181.59;1756469;81;21076;-41
2021/11/02 01:18:28;;;;;;;63.40;47.70;;;;;;;8.39;66.80;99174.28;1756528;81;20953;-40
2021/11/02 01:20:57;;;;;;;71.37;49.50;;;;;;;8.43;66.87;99167.04;1739374;81;20950;-41
2021/11/02 01:23:24;;;;;;;71.42;49.75;;;;;;;8.42;66.92;99170.11;1756585;81;21282;-41
2021/11/02 01:25:50;;;;;;;67.97;49.80;;;;;;;8.38;66.97;99163.25;1756296;81;21139;-40
2021/11/02 01:28:17;;;;;;;70.45;50.95;;;;;;;8.37;67.16;99152.25;1750350;81;21012;-41
2021/11/02 01:30:45;;;;;;;72.97;51.05;;;;;;;8.39;67.20;99157.28;1756465;81;20969;-42
2021/11/02 01:33:14;;;;;;;67.72;49.25;;;;;;;8.38;67.29;99148.39;1751318;81;21053;-42
2021/11/02 01:35:41;;;;;;;64.40;47.35;;;;;;;8.40;67.17;99145.35;1756776;81;20957;-40
2021/11/02 01:38:09;;;;;;;68.30;47.20;;;;;;;8.46;67.19;99146.09;1756721;81;21087;-41
2021/11/02 01:40:36;;;;;;;64.92;49.20;;;;;;;8.51;67.07;99142.34;1756734;81;20957;-41
2021/11/02 01:43:03;;;;;;;71.67;49.75;;;;;;;8.52;67.08;99145.27;1756633;81;21547;-41
2021/11/02 01:45:31;;;;;;;67.85;50.10;;;;;;;8.52;67.03;99147.97;1756793;81;21530;-40
2021/11/02 01:48:00;;;;;;;72.58;51.70;;;;;;;8.52;67.02;99146.62;1756564;81;21582;-41
2021/11/02 01:50:32;;;;;;;72.67;52.15;;;;;;;8.51;67.06;99138.30;1755795;81;21986;-41
2021/11/02 01:52:59;;;;;;;66.50;46.58;;;;;;;8.48;67.19;99148.42;1739334;81;20953;-40
2021/11/02 01:55:26;;;;;;;62.73;46.45;;;;;;;8.50;67.19;99147.52;1756411;81;20957;-41
2021/11/02 01:57:53;;;;;;;62.67;47.40;;;;;;;8.56;67.12;99147.48;1756453;81;21587;-40
2021/11/02 02:00:21;;;;;;;65.03;47.67;;;;;;;8.51;67.11;99130.97;1756699;81;21530;-41
2021/11/02 02:03:14;;;;;;;67.62;50.15;;;;;;;8.60;67.14;99145.64;1755909;81;21134;-42
2021/11/02 02:06:11;;;;;;;71.42;51.15;;;;;;;8.58;67.13;99137.88;1717554;81;21551;-41
2021/11/02 02:08:47;;;;;;;72.78;51.13;;;;;;;8.51;67.16;99139.64;1750743;81;21621;-41
2021/11/02 02:11:46;;;;;;;75.92;49.23;;;;;;;8.41;67.46;99144.22;1756628;81;20938;-41
2021/11/02 02:14:18;;;;;;;74.82;48.30;;;;;;;8.36;67.66;99133.13;1756568;81;21044;-40
2021/11/02 02:16:48;;;;;;;68.70;48.75;;;;;;;8.32;67.75;99127.42;1756108;81;21133;-42
2021/11/02 02:19:37;;;;;;;71.72;50.65;;;;;;;8.33;67.92;99124.34;1756781;81;20965;-42
2021/11/02 02:22:39;;;;;;;69.20;49.95;;;;;;;8.32;68.15;99122.80;1756632;81;21020;-41
2021/11/02 02:25:32;;;;;;;73.17;52.30;;;;;;;8.35;68.25;99124.00;1756616;81;21025;-41
2021/11/02 02:28:23;;;;;;;77.75;52.35;;;;;;;8.34;68.28;99127.84;1755747;81;21025;-40
2021/11/02 02:30:58;;;;;;;54.73;38.77;;;;;;;8.32;68.23;99120.66;1757018;81;21500;-40
2021/11/02 02:33:30;;;;;;;63.48;47.50;;;;;;;8.36;68.10;99117.48;1756670;81;21005;-41
2021/11/02 02:35:57;;;;;;;66.62;48.95;;;;;;;8.40;68.13;99117.77;1755812;81;21027;-40
2021/11/02 02:38:25;;;;;;;70.83;50.95;;;;;;;8.43;68.11;99117.63;1756472;81;21526;-41
2021/11/02 02:40:53;;;;;;;71.75;52.73;;;;;;;8.43;68.12;99120.33;1756635;81;21033;-41
2021/11/02 02:43:21;;;;;;;75.17;52.00;;;;;;;8.42;68.21;99114.17;1739442;81;21139;-40
2021/11/02 02:45:50;;;;;;;72.90;51.08;;;;;;;8.43;68.18;99112.22;1756332;81;21503;-42
2021/11/02 02:48:20;;;;;;;70.08;47.62;;;;;;;8.42;68.27;99099.88;1756595;81;21052;-41
2021/11/02 02:50:47;;;;;;;64.20;46.13;;;;;;;8.47;68.25;99107.71;1750336;81;21510;-41
2021/11/02 02:53:16;;;;;;;65.45;48.42;;;;;;;8.55;68.09;99107.52;1756371;81;21041;-42
2021/11/02 02:55:43;;;;;;;70.78;48.58;;;;;;;8.61;68.01;99090.47;1756542;81;21202;-41
2021/11/02 02:58:11;;;;;;;69.27;50.88;;;;;;;8.66;67.98;99086.14;1739400;81;21043;-40
2021/11/02 03:00:40;;;;;;;71.42;50.78;;;;;;;8.70;67.89;99085.08;1739684;81;20964;-40
2021/11/02 03:03:08;;;;;;;75.65;52.05;;;;;;;8.73;67.76;99083.02;1748208;81;21476;-42
2021/11/02 03:05:36;;;;;;;71.80;51.80;;;;;;;8.70;67.59;99089.14;1743426;82;21567;-42
2021/11/02 03:08:04;;;;;;;65.25;48.73;;;;;;;8.63;67.58;99093.02;1743281;82;21124;-41
2021/11/02 03:10:32;;;;;;;65.95;48.17;;;;;;;8.58;67.69;99106.80;1743240;82;20886;-41
2021/11/02 03:13:07;;;;;;;66.05;48.90;;;;;;;8.59;67.79;99096.78;1737393;82;21014;-41
2021/11/02 03:15:54;;;;;;;68.17;50.10;;;;;;;8.58;67.78;99081.70;1743376;81;20971;-41
2021/11/02 03:19:11;;;;;;;70.32;49.67;;;;;;;8.52;67.92;99092.58;1743146;81;20998;-41
2021/11/02 03:48:57;;;;;;;64.72;47.85;;;;;;;8.57;68.42;99066.61;1708117;83;21134;-41
2021/11/02 03:57:08;;;;;;;66.07;50.03;;;;;;;8.59;68.01;99063.79;1713760;83;21033;-41
2021/11/02 03:59:54;;;;;;;56.02;39.73;;;;;;;8.54;68.05;99065.98;1712752;82;21018;-41
2021/11/02 04:22:19;;;;;;;72.42;50.80;;;;;;;8.49;68.14;99062.98;1718210;81;21140;-42
2021/11/02 04:27:09;;;;;;;61.90;46.90;;;;;;;8.28;68.77;99029.49;1750699;81;21547;-40
2021/11/02 05:07:22;;;;;;;69.10;49.75;;;;;;;8.11;69.68;99003.45;1701391;83;21044;-40
2021/11/02 05:09:58;;;;;;;72.80;52.08;;;;;;;8.05;69.85;98998.09;1707970;83;21155;-41
2021/11/02 05:48:35;;;;;;;72.95;50.30;;;;;;;8.06;70.96;99017.22;1726664;83;21040;-41
2021/11/02 05:51:02;;;;;;;70.20;51.53;;;;;;;8.09;70.95;99011.89;1724335;82;21531;-41
2021/11/02 05:58:39;;;;;;;72.90;50.85;;;;;;;8.10;71.03;99014.81;1726498;83;21514;-41
2021/11/02 06:09:20;;;;;;;77.47;52.15;;;;;;;8.16;70.94;99021.52;1712034;82;22037;-42
2021/11/02 06:29:01;;;;;;;83.87;54.53;;;;;;;8.12;71.29;99019.30;1712053;83;21030;-40
2021/11/02 06:31:32;;;;;;;79.95;51.40;;;;;;;8.17;71.09;99006.10;1712028;82;21129;-42
2021/11/02 07:17:17;;;;;;;79.12;52.85;;;;;;;8.50;70.25;98995.67;1743209;82;21512;-41
2021/11/02 07:19:51;;;;;;;73.50;50.48;;;;;;;8.46;70.50;99004.84;1742872;81;20993;-41
2021/11/02 07:25:03;;;;;;;71.90;50.98;;;;;;;8.56;70.59;99002.92;1743626;81;21846;-41
2021/11/02 08:45:04;;;;;;;61.77;44.53;;;;;;;9.15;70.44;98950.58;1756807;81;21028;-41
2021/11/02 08:47:35;;;;;;;71.28;50.10;;;;;;;9.16;70.38;98948.66;1756612;81;21150;-43
2021/11/02 08:50:05;;;;;;;74.10;50.50;;;;;;;9.19;70.36;98945.27;1756631;81;20922;-42
2021/11/02 08:52:33;;;;;;;72.92;49.75;;;;;;;9.20;70.26;98943.34;1756689;81;21029;-43
2021/11/02 08:55:05;;;;;;;64.77;45.28;;;;;;;9.19;70.21;98937.14;1756613;81;21052;-43
2021/11/02 08:57:32;;;;;;;64.67;46.25;;;;;;;9.19;70.21;98943.13;1756795;81;21044;-44
2021/11/02 08:59:59;;;;;;;68.02;47.67;;;;;;;9.23;70.17;98929.88;1756526;81;21106;-43
2021/11/02 09:02:33;;;;;;;79.90;44.25;;;;;;;9.28;70.20;98934.20;1756369;81;21358;-43
2021/11/02 09:05:10;;;;;;;63.38;44.80;;;;;;;9.28;70.12;98928.78;1756612;81;21001;-43
2021/11/02 09:07:38;;;;;;;63.02;42.80;;;;;;;9.26;70.17;98929.14;1756712;81;21040;-42
2021/11/02 09:10:18;;;;;;;52.30;37.77;;;;;;;9.25;70.25;98916.75;1757022;81;21068;-43
2021/11/02 09:12:51;;;;;;;51.98;37.55;;;;;;;9.28;70.08;98916.62;1756508;81;21117;-42
2021/11/02 09:15:24;;;;;;;;;;;;;;;9.31;69.92;98909.91;1758517;81;21017;-42
2021/11/02 09:17:52;;;;;;;51.10;37.45;;;;;;;9.30;70.01;98908.91;1755869;81;20153;-41
2021/11/02 09:20:19;;;;;;;51.00;38.83;;;;;;;9.21;70.25;98915.12;1756832;81;20963;-43
2021/11/02 09:22:46;;;;;;;51.42;39.65;;;;;;;9.19;70.25;98905.26;1756596;81;21076;-43
2021/11/02 09:25:14;;;;;;;50.65;36.70;;;;;;;9.14;70.33;98904.98;1756623;81;21093;-41
2021/11/02 09:27:42;;;;;;;50.63;37.30;;;;;;;9.16;70.58;98893.22;1756720;81;21068;-43
2021/11/02 09:30:11;;;;;;;50.83;37.60;;;;;;;9.26;70.63;98897.25;1756883;81;21076;-43
2021/11/02 09:32:43;;;;;;;53.13;38.28;;;;;;;9.31;70.49;98889.62;1756614;81;21076;-42
2021/11/02 09:35:11;;;;;;;49.77;37.42;;;;;;;9.30;70.50;98892.10;1756557;81;21029;-43
2021/11/02 09:37:41;;;;;;;55.45;37.83;;;;;;;9.30;70.47;98894.02;1756402;81;21098;-43
2021/11/02 09:40:32;;;;;;;51.02;38.20;;;;;;;9.28;70.56;98884.94;1756919;81;21072;-42
2021/11/02 09:43:40;;;;;;;48.87;36.15;;;;;;;9.27;70.61;98873.12;1762935;81;21555;-43
2021/11/02 09:46:24;;;;;;;47.48;36.03;;;;;;;9.27;70.66;98867.14;1772583;81;21005;-43
2021/11/02 09:49:14;;;;;;;56.30;37.40;;;;;;;9.33;70.69;98858.94;1772376;81;20977;-43
2021/11/02 09:52:27;;;;;;;54.42;39.83;;;;;;;9.33;70.75;98862.21;1772229;81;21312;-43
2021/11/02 09:55:22;;;;;;;53.95;41.15;;;;;;;9.30;70.81;98853.45;1772300;81;21002;-43
2021/11/02 09:58:33;;;;;;;52.35;38.28;;;;;;;9.28;70.94;98857.11;1772454;80;21041;-42
2021/11/02 10:01:39;;;;;;;50.10;37.20;;;;;;;9.29;71.00;98846.50;1772251;81;20993;-43
2021/11/02 10:04:19;;;;;;;63.00;43.45;;;;;;;9.37;71.07;98835.99;1726658;82;21077;-42
2021/11/02 10:07:19;;;;;;;63.23;45.58;;;;;;;9.43;71.27;98833.97;1720661;82;21777;-43
2021/11/02 10:09:59;;;;;;;69.40;47.45;;;;;;;9.49;71.10;98831.14;1726753;83;21502;-42
2021/11/02 10:12:59;;;;;;;64.40;45.12;;;;;;;9.52;71.03;98833.14;1726574;82;20981;-42
2021/11/02 10:15:42;;;;;;;65.25;45.40;;;;;;;9.60;71.02;98825.31;1726482;83;21028;-43
2021/11/02 10:18:46;;;;;;;60.90;45.43;;;;;;;9.72;70.82;98820.27;1725496;82;21012;-42
2021/11/02 10:21:40;;;;;;;69.37;45.03;;;;;;;9.82;70.71;98816.92;1726691;83;21189;-43
2021/11/02 10:24:28;;;;;;;64.67;43.75;;;;;;;9.86;70.48;98806.13;1720709;82;21534;-43
2021/11/02 10:27:24;;;;;;;61.15;42.88;;;;;;;9.83;70.36;98797.37;1726483;82;21045;-43
2021/11/02 10:30:23;;;;;;;58.68;41.05;;;;;;;9.78;70.43;98796.37;1722661;83;21036;-43
2021/11/02 10:32:51;;;;;;;56.77;40.73;;;;;;;9.78;70.38;98790.36;1682820;85;21597;-42
2021/11/02 10:35:46;;;;;;;57.40;39.88;;;;;;;9.85;70.26;98786.40;1717595;82;21534;-44
2021/11/02 10:38:26;;;;;;;58.85;39.18;;;;;;;9.87;70.27;98784.69;1726400;83;21036;-43
2021/11/02 10:41:03;;;;;;;59.83;40.63;;;;;;;9.83;70.16;98784.62;1719381;82;21681;-44
2021/11/02 10:44:08;;;;;;;59.63;40.10;;;;;;;9.80;70.18;98782.66;1710612;83;21503;-43
2021/11/02 10:46:37;;;;;;;57.53;34.53;;;;;;;9.75;70.13;98780.27;1756748;81;21029;-43
2021/11/02 10:49:29;;;;;;;51.68;35.78;;;;;;;9.74;70.00;98781.42;1756792;81;22175;-43
2021/11/02 10:52:08;;;;;;;52.85;36.70;;;;;;;9.78;70.06;98774.11;1756251;81;21016;-44
2021/11/02 10:54:47;;;;;;;55.35;37.67;;;;;;;9.80;69.92;98775.89;1756699;81;20976;-43
2021/11/02 10:57:39;;;;;;;55.10;36.98;;;;;;;9.80;70.02;98761.58;1756164;81;20980;-42
2021/11/02 11:00:10;;;;;;;55.88;37.45;;;;;;;9.80;70.11;98765.06;1756698;81;21585;-40
2021/11/02 11:02:38;;;;;;;48.52;33.18;;;;;;;9.76;70.18;98760.76;1741527;81;21867;-41
2021/11/02 11:05:09;;;;;;;51.42;33.13;;;;;;;9.77;70.06;98754.98;1722182;82;21002;-42
2021/11/02 11:07:39;;;;;;;48.23;34.45;;;;;;;9.84;69.85;98748.86;1713527;82;21029;-43
2021/11/02 11:10:07;;;;;;;44.35;32.73;;;;;;;9.85;69.78;98747.14;1713756;82;21567;-42
2021/11/02 11:12:45;;;;;;;49.48;34.38;;;;;;;9.82;69.81;98745.76;1713823;83;21594;-42
2021/11/02 11:15:12;;;;;;;53.48;35.58;;;;;;;9.78;70.00;98736.82;1710545;82;21349;-43
2021/11/02 11:20:14;;;;;;;42.43;31.25;;;;;;;9.77;70.15;98724.42;1783249;79;22695;-42
2021/11/02 11:22:47;;;;;;;44.05;30.27;;;;;;;9.76;70.25;98733.12;1755528;81;21002;-40
2021/11/02 11:25:18;;;;;;;48.80;31.52;;;;;;;9.87;70.18;98724.55;1755496;81;21973;-41
2021/11/02 11:27:56;;;;;;;47.23;32.30;;;;;;;9.93;70.19;98721.70;1755407;81;21014;-40
2021/11/02 11:30:35;;;;;;;41.68;31.00;;;;;;;9.95;70.02;98714.00;1755464;81;21552;-41
2021/11/02 11:33:08;;;;;;;45.38;31.70;;;;;;;9.95;69.96;98722.13;1755275;81;21596;-42
2021/11/02 11:35:38;;;;;;;45.08;30.27;;;;;;;9.94;70.03;98717.06;1755486;81;20958;-42
2021/11/02 11:38:07;;;;;;;45.58;29.30;;;;;;;9.98;69.96;98712.47;1755435;81;21126;-40
2021/11/02 11:40:36;;;;;;;41.98;29.35;;;;;;;10.07;69.69;98706.77;1755344;81;20966;-41
2021/11/02 11:43:06;;;;;;;43.17;29.77;;;;;;;10.08;69.78;98704.24;1755147;81;20903;-42
2021/11/02 11:45:36;;;;;;;37.25;28.90;;;;;;;10.02;69.75;98696.45;1755357;81;21612;-40
2021/11/02 11:48:14;;;;;;;39.20;28.38;;;;;;;9.98;69.84;98694.29;1755528;81;21062;-41
2021/11/02 11:50:42;;;;;;;37.08;28.17;;;;;;;9.92;69.92;98692.30;1755402;81;21809;-41
2021/11/02 11:53:11;;;;;;;35.45;25.48;;;;;;;9.85;70.05;98688.94;1755161;81;22135;-41
2021/11/02 11:55:42;;;;;;;32.67;26.62;;;;;;;9.85;70.32;98688.94;1755391;81;21603;-42
2021/11/02 11:58:15;;;;;;;39.50;31.33;;;;;;;9.85;70.57;98682.17;1755232;81;21082;-41
2021/11/02 12:00:47;;;;;;;38.88;28.55;;;;;;;9.89;70.60;98681.63;1755528;81;21584;-41
2021/11/02 12:03:32;;;;;;;36.58;28.12;;;;;;;9.90;70.69;98676.99;1735305;81;21124;-42
2021/11/02 12:06:20;;;;;;;35.70;26.60;;;;;;;9.90;70.81;98683.19;1726723;82;21582;-40
2021/11/02 12:09:10;;;;;;;35.80;26.30;;;;;;;9.91;70.66;98679.34;1709311;83;20986;-41
2021/11/02 12:11:38;;;;;;;34.83;26.97;;;;;;;9.97;70.68;98676.48;1726026;82;21005;-41
2021/11/02 12:14:11;;;;;;;35.35;27.30;;;;;;;10.00;70.54;98675.76;1702248;83;21123;-40
2021/11/02 12:16:43;;;;;;;34.43;26.60;;;;;;;9.98;70.47;98675.34;1726744;83;21808;-41
2021/11/02 12:19:23;;;;;;;33.40;26.93;;;;;;;9.94;70.58;98677.23;1720991;82;21041;-41
2021/11/02 12:22:05;;;;;;;31.27;24.80;;;;;;;9.88;70.58;98664.39;1703914;83;21036;-41
2021/11/02 12:24:36;;;;;;;34.03;25.05;;;;;;;9.83;70.67;98666.08;1714230;83;21516;-41
2021/11/02 12:27:16;;;;;;;38.23;24.87;;;;;;;9.84;70.83;98663.01;1714236;82;21538;-41
2021/11/02 12:29:43;;;;;;;30.88;24.50;;;;;;;9.82;70.95;98655.84;1714152;82;21127;-42
2021/11/02 12:32:12;;;;;;;30.45;23.32;;;;;;;9.79;71.15;98660.63;1713695;83;21492;-42
2021/11/02 12:34:57;;;;;;;30.23;22.80;;;;;;;9.80;71.32;98654.08;1713703;82;21045;-41
2021/11/02 12:37:26;;;;;;;23.22;19.87;;;;;;;9.82;71.30;98656.42;1713533;83;21488;-42
2021/11/02 12:39:53;;;;;;;23.10;20.32;;;;;;;9.82;71.21;98658.56;1713717;82;21049;-42
2021/11/02 12:42:26;;;;;;;28.95;21.05;;;;;;;9.83;71.12;98660.66;1713837;82;21551;-42
2021/11/02 12:44:51;;;;;;;27.37;21.23;;;;;;;9.83;71.17;98657.95;1690858;83;21559;-41
2021/11/02 12:47:21;;;;;;;23.73;19.30;;;;;;;9.79;71.24;98652.52;1713832;83;21021;-42
2021/11/02 12:49:59;;;;;;;21.90;18.37;;;;;;;9.74;71.30;98659.61;1713757;82;21032;-41
2021/11/02 12:52:31;;;;;;;20.88;17.17;;;;;;;9.69;71.45;98657.23;1713781;82;21028;-41
2021/11/02 12:55:19;;;;;;;22.87;18.92;;;;;;;9.67;71.57;98662.25;1712517;82;21156;-42
2021/11/02 12:57:49;;;;;;;21.97;19.15;;;;;;;9.70;71.56;98660.16;1713440;83;21025;-42
2021/11/02 13:00:26;;;;;;;29.30;21.55;;;;;;;9.64;71.67;98658.13;1713608;83;21527;-41
2021/11/02 13:02:56;;;;;;;25.52;20.45;;;;;;;9.56;71.88;98658.07;1728939;82;20981;-42
2021/11/02 13:05:26;;;;;;;23.05;18.55;;;;;;;9.53;72.12;98660.17;1743447;82;21520;-40
2021/11/02 13:08:09;;;;;;;23.30;19.48;;;;;;;9.56;72.21;98658.64;1743244;82;21100;-42
2021/11/02 13:10:37;;;;;;;26.25;21.73;;;;;;;9.64;72.09;98659.48;1743165;82;21721;-41
2021/11/02 13:13:14;;;;;;;25.57;19.95;;;;;;;9.64;72.07;98662.98;1743219;82;21420;-41
2021/11/02 13:15:56;;;;;;;30.08;21.75;;;;;;;9.60;72.19;98652.69;1742822;81;21025;-41
2021/11/02 13:18:40;;;;;;;27.85;20.20;;;;;;;9.56;72.31;98657.29;1743322;82;21148;-41
2021/11/02 13:21:28;;;;;;;26.70;22.02;;;;;;;9.57;72.49;98652.09;1742503;81;22135;-42
2021/11/02 13:24:13;;;;;;;27.95;19.65;;;;;;;9.63;72.41;98657.38;1743312;82;21012;-41
2021/11/02 13:26:47;;;;;;;25.88;20.40;;;;;;;9.60;72.53;98655.39;1715856;82;21552;-42
2021/11/02 13:29:21;;;;;;;25.05;19.10;;;;;;;9.57;72.73;98663.70;1743538;81;21547;-41
2021/11/02 13:31:54;;;;;;;21.87;17.10;;;;;;;9.58;72.83;98649.59;1743244;82;21029;-42
2021/11/02 13:34:40;;;;;;;21.52;17.50;;;;;;;9.60;72.68;98645.92;1743173;81;21821;-41
2021/11/02 13:37:10;;;;;;;21.55;17.92;;;;;;;9.65;72.61;98655.07;1743167;82;20989;-41
2021/11/02 13:39:54;;;;;;;25.40;18.82;;;;;;;9.65;72.71;98657.77;1743003;82;20977;-42
2021/11/02 13:42:48;;;;;;;20.90;17.70;;;;;;;9.64;72.80;98656.21;1743246;82;20973;-41
2021/11/02 13:45:19;;;;;;;22.05;15.75;;;;;;;9.63;72.90;98653.89;1743248;82;21990;-40
2021/11/02 13:47:47;;;;;;;21.20;16.17;;;;;;;9.66;72.80;98649.86;1743260;82;21119;-40
2021/11/02 13:50:16;;;;;;;43.48;18.73;;;;;;;9.74;72.72;98643.38;1737381;82;21473;-41
2021/11/02 13:52:43;;;;;;;30.05;18.62;;;;;;;9.80;72.57;98644.60;1743537;82;21572;-40
2021/11/02 13:55:10;;;;;;;23.83;17.20;;;;;;;9.80;72.42;98648.66;1743314;82;21042;-41
2021/11/02 13:57:37;;;;;;;27.20;17.30;;;;;;;9.78;72.54;98648.24;1743316;82;21109;-41
2021/11/02 14:00:06;;;;;;;32.25;18.40;;;;;;;9.79;72.59;98644.96;1743385;81;21142;-41
2021/11/02 14:02:36;;;;;;;24.75;15.53;;;;;;;9.81;72.48;98647.52;1742796;82;21069;-41
2021/11/02 14:05:03;;;;;;;30.62;14.87;;;;;;;9.88;72.32;98644.87;1712848;82;21014;-41
2021/11/02 14:07:32;;;;;;;59.23;17.52;;;;;;;9.92;72.32;98640.27;1713040;82;20970;-41
2021/11/02 14:10:08;;;;;;;43.87;16.75;;;;;;;9.95;72.16;98639.53;1743360;81;21504;-41
2021/11/02 14:12:53;;;;;;;32.65;15.38;;;;;;;9.95;72.08;98636.83;1743183;81;20973;-42
2021/11/02 14:15:23;;;;;;;15.85;11.70;;;;;;;9.96;71.99;98634.91;1743019;82;21610;-41
2021/11/02 14:17:58;;;;;;;16.60;10.72;;;;;;;9.95;71.86;98631.98;1742999;81;21515;-40
2021/11/02 14:20:49;;;;;;;14.75;12.18;;;;;;;10.00;71.85;98625.66;1743250;81;21018;-41
2021/11/02 14:23:36;;;;;;;18.77;12.00;;;;;;;10.02;71.76;98629.36;1743183;82;21591;-42
2021/11/02 14:26:26;;;;;;;20.08;13.40;;;;;;;10.00;71.92;98624.88;1737627;82;21104;-41
2021/11/02 14:28:55;;;;;;;18.82;12.25;;;;;;;10.02;71.88;98628.00;1743392;82;20918;-41
2021/11/02 14:31:45;;;;;;;14.63;11.47;;;;;;;10.02;71.74;98621.98;1743468;82;20926;-42
2021/11/02 14:34:32;;;;;;;12.58;10.20;;;;;;;9.99;71.67;98621.39;1743170;82;22218;-42
2021/11/02 14:37:20;;;;;;;14.23;11.33;;;;;;;10.04;71.62;98615.63;1743212;81;21080;-42
2021/11/02 14:40:05;;;;;;;15.50;11.70;;;;;;;10.07;71.62;98621.47;1743276;82;21146;-41
2021/11/02 14:42:48;;;;;;;15.93;12.10;;;;;;;10.00;71.67;98618.89;1743244;81;20957;-41
2021/11/02 14:45:20;;;;;;;16.52;11.65;;;;;;;9.97;71.71;98626.39;1743402;81;21542;-42
2021/11/02 14:47:47;;;;;;;14.75;9.93;;;;;;;9.93;71.81;98636.41;1737545;82;20958;-40
2021/11/02 14:50:36;;;;;;;13.83;9.28;;;;;;;9.93;71.94;98629.64;1743248;82;21080;-42
2021/11/02 14:53:18;;;;;;;13.30;10.25;;;;;;;10.03;71.81;98630.89;1743105;82;21125;-41
2021/11/02 14:55:59;;;;;;;15.23;11.38;;;;;;;10.08;71.87;98632.48;1742664;81;20926;-40
2021/11/02 14:58:48;;;;;;;12.95;11.00;;;;;;;10.12;71.74;98633.31;1743231;81;21021;-41
2021/11/02 15:01:37;;;;;;;20.03;14.60;;;;;;;10.14;71.67;98624.22;1743392;82;21071;-41
2021/11/02 15:04:10;;;;;;;13.00;10.32;;;;;;;10.14;71.51;98623.65;1735533;81;21872;-41
2021/11/02 15:06:44;;;;;;;12.45;9.65;;;;;;;10.17;71.39;98624.84;1743220;82;21825;-42
2021/11/02 15:09:17;;;;;;;14.28;11.50;;;;;;;10.21;71.19;98618.91;1743008;82;20926;-41
2021/11/02 15:11:50;;;;;;;13.15;10.45;;;;;;;10.23;71.27;98626.06;1743118;81;20965;-41
2021/11/02 15:14:27;;;;;;;14.07;11.33;;;;;;;10.21;71.17;98618.34;1743240;82;21492;-41
2021/11/02 15:16:57;;;;;;;14.50;10.70;;;;;;;10.22;71.18;98624.50;1743139;82;21509;-41
2021/11/02 15:19:28;;;;;;;13.85;9.58;;;;;;;10.19;71.22;98623.34;1744781;81;21131;-41
2021/11/02 15:22:08;;;;;;;13.55;10.08;;;;;;;10.23;71.09;98619.30;1756764;81;21571;-41
2021/11/02 15:24:39;;;;;;;14.10;11.53;;;;;;;10.30;71.08;98622.08;1748194;81;21000;-42
2021/11/02 15:27:22;;;;;;;12.65;9.95;;;;;;;10.30;70.91;98617.44;1756426;81;21020;-42
2021/11/02 15:29:56;;;;;;;15.95;11.20;;;;;;;10.30;71.02;98623.43;1756579;81;21039;-41
2021/11/02 15:32:25;;;;;;;16.93;12.28;;;;;;;10.29;70.95;98629.99;1755555;81;21128;-41
2021/11/02 15:34:56;;;;;;;16.32;11.50;;;;;;;10.26;71.00;98633.46;1756450;81;21012;-41
2021/11/02 15:37:29;;;;;;;12.85;10.93;;;;;;;10.30;70.97;98627.49;1756682;81;21171;-41
2021/11/02 15:40:03;;;;;;;13.80;11.30;;;;;;;10.35;70.86;98627.15;1756376;81;21015;-41
2021/11/02 15:42:43;;;;;;;15.25;11.88;;;;;;;10.36;70.93;98628.11;1756590;81;21072;-41
2021/11/02 15:45:30;;;;;;;;;;;;;;;10.39;70.91;98636.08;1759136;81;21793;-41
2021/11/02 15:47:54;;;;;;;15.60;12.28;;;;;;;10.41;70.84;98636.46;1756331;81;20418;-42
2021/11/02 15:50:25;;;;;;;17.20;12.13;;;;;;;10.31;70.97;98633.88;1756481;81;21080;-40
2021/11/02 15:52:59;;;;;;;16.62;11.70;;;;;;;10.38;70.85;98629.87;1756475;81;21033;-42
2021/11/02 15:55:28;;;;;;;15.75;12.03;;;;;;;10.46;70.73;98627.98;1765801;81;21559;-41
2021/11/02 15:58:01;;;;;;;19.20;13.13;;;;;;;10.50;70.60;98617.98;1772185;80;20966;-42
2021/11/02 16:00:31;;;;;;;17.62;13.80;;;;;;;10.50;70.55;98620.69;1772462;80;21021;-41
2021/11/02 16:02:58;;;;;;;17.42;13.45;;;;;;;10.51;70.51;98619.51;1744989;81;21025;-40
2021/11/02 16:05:30;;;;;;;20.12;14.03;;;;;;;10.52;70.47;98622.42;1726603;83;21633;-43
2021/11/02 16:08:00;;;;;;;16.97;13.30;;;;;;;10.51;70.44;98610.02;1726653;82;21021;-41
2021/11/02 16:10:33;;;;;;;19.45;12.68;;;;;;;10.52;70.43;98601.31;1726688;82;20977;-41
2021/11/02 16:13:05;;;;;;;19.00;13.32;;;;;;;10.58;70.24;98601.95;1726492;83;20997;-42
2021/11/02 16:15:34;;;;;;;19.15;14.15;;;;;;;10.61;70.21;98593.63;1726470;82;20976;-41
2021/11/02 16:18:06;;;;;;;21.55;14.83;;;;;;;10.61;70.23;98596.34;1726526;83;21008;-42
2021/11/02 16:20:37;;;;;;;22.22;15.90;;;;;;;10.62;70.15;98593.84;1720992;82;21029;-42
2021/11/02 16:23:14;;;;;;;17.12;13.98;;;;;;;10.59;70.11;98600.02;1713775;83;21144;-41
2021/11/02 16:25:44;;;;;;;18.95;13.60;;;;;;;10.58;70.15;98595.75;1713624;83;20938;-41
2021/11/02 16:28:18;;;;;;;18.00;15.13;;;;;;;10.63;70.06;98598.11;1713950;83;20942;-41
2021/11/02 16:30:53;;;;;;;21.15;16.77;;;;;;;10.67;70.06;98595.62;1713782;82;21009;-39
2021/11/02 16:33:34;;;;;;;24.10;16.70;;;;;;;10.65;70.03;98601.23;1713737;82;21100;-40
2021/11/02 16:36:24;;;;;;;24.63;17.42;;;;;;;10.60;70.08;98599.63;1713916;83;21187;-42
2021/11/02 16:39:00;;;;;;;26.25;16.82;;;;;;;10.57;70.28;98605.81;1713555;83;21025;-41
2021/11/02 16:41:30;;;;;;;21.20;15.80;;;;;;;10.59;70.21;98603.52;1714006;83;21503;-41
2021/11/02 16:44:07;;;;;;;21.80;16.15;;;;;;;10.66;70.14;98598.70;1712959;83;21053;-41
2021/11/02 16:46:38;;;;;;;21.50;16.15;;;;;;;10.66;70.16;98598.70;1713877;83;21041;-41
2021/11/02 16:49:26;;;;;;;20.92;16.67;;;;;;;10.66;70.19;98599.48;1713394;82;21655;-40